createdAt,value
2019-01-14T00:00:21.965Z,983.59
2019-01-14T00:01:21.948Z,983.55
2019-01-14T00:02:21.947Z,983.65
2019-01-14T00:03:21.964Z,983.71
2019-01-14T00:04:21.938Z,983.75
2019-01-14T00:05:21.912Z,983.82
2019-01-14T00:06:21.901Z,983.91
2019-01-14T00:07:21.917Z,983.76
2019-01-14T00:08:21.886Z,983.76
2019-01-14T00:09:23.251Z,983.92
2019-01-14T00:10:21.860Z,983.96
2019-01-14T00:11:21.850Z,983.95
2019-01-14T00:12:21.837Z,983.96
2019-01-14T00:13:21.841Z,983.98
2019-01-14T00:14:21.866Z,984.03
2019-01-14T00:15:21.810Z,984.21
2019-01-14T00:16:21.796Z,984.04
2019-01-14T00:17:21.787Z,984.11
2019-01-14T00:18:21.771Z,984.17
2019-01-14T00:19:21.762Z,984.30
2019-01-14T00:20:21.772Z,984.23
2019-01-14T00:21:21.825Z,984.33
2019-01-14T00:22:21.766Z,984.34
2019-01-14T00:23:21.725Z,984.37
2019-01-14T00:24:21.726Z,984.53
2019-01-14T00:25:21.733Z,984.64
2019-01-14T00:26:21.695Z,984.61
2019-01-14T00:27:21.708Z,984.62
2019-01-14T00:28:21.676Z,984.56
2019-01-14T00:29:21.669Z,984.48
2019-01-14T00:30:21.641Z,984.57
2019-01-14T00:31:21.630Z,984.64
2019-01-14T00:32:21.628Z,984.69
2019-01-14T00:33:21.637Z,984.76
2019-01-14T00:34:21.605Z,984.64
2019-01-14T00:35:21.596Z,984.77
2019-01-14T00:36:21.608Z,984.66
2019-01-14T00:37:21.607Z,984.77
2019-01-14T00:38:21.588Z,984.66
2019-01-14T00:39:21.552Z,984.57
2019-01-14T00:40:21.549Z,984.53
2019-01-14T00:41:21.549Z,984.65
2019-01-14T00:42:21.521Z,984.79
2019-01-14T00:43:21.513Z,984.64
2019-01-14T00:44:21.517Z,984.69
2019-01-14T00:45:21.486Z,984.77
2019-01-14T00:46:21.533Z,984.69
2019-01-14T00:47:21.474Z,984.70
2019-01-14T00:48:21.478Z,984.80
2019-01-14T00:49:21.482Z,984.84
2019-01-14T00:50:21.441Z,984.86
2019-01-14T00:51:21.424Z,984.91
2019-01-14T00:52:21.415Z,984.94
2019-01-14T00:53:21.405Z,984.94
2019-01-14T00:54:21.398Z,984.89
2019-01-14T00:55:21.426Z,985.05
2019-01-14T00:56:21.374Z,985.07
2019-01-14T00:57:21.363Z,985.12
2019-01-14T00:58:21.350Z,985.05
2019-01-14T00:59:21.338Z,985.12
2019-01-14T01:00:21.336Z,985.04
2019-01-14T01:01:21.362Z,985.11
2019-01-14T01:02:21.313Z,985.17
2019-01-14T01:03:21.304Z,985.10
2019-01-14T01:04:21.281Z,985.16
2019-01-14T01:05:21.297Z,985.31
2019-01-14T01:06:24.764Z,985.26
2019-01-14T01:07:21.273Z,985.28
2019-01-14T01:08:21.242Z,985.36
2019-01-14T01:09:21.233Z,985.25
2019-01-14T01:10:21.242Z,985.27
2019-01-14T01:11:21.209Z,985.42
2019-01-14T01:12:21.212Z,985.55
2019-01-14T01:13:21.187Z,985.56
2019-01-14T01:14:21.237Z,985.54
2019-01-14T01:15:21.176Z,985.48
2019-01-14T01:16:21.159Z,985.47
2019-01-14T01:17:21.145Z,985.59
2019-01-14T01:18:21.140Z,985.57
2019-01-14T01:19:21.127Z,985.53
2019-01-14T01:20:21.150Z,985.48
2019-01-14T01:21:21.111Z,985.60
2019-01-14T01:22:21.098Z,985.56
2019-01-14T01:23:21.083Z,985.61
2019-01-14T01:24:21.071Z,985.48
2019-01-14T01:25:21.058Z,985.64
2019-01-14T01:26:21.077Z,985.64
2019-01-14T01:27:21.071Z,985.68
2019-01-14T01:28:21.036Z,985.65
2019-01-14T01:29:21.023Z,985.74
2019-01-14T01:30:21.018Z,985.80
2019-01-14T01:31:21.001Z,985.74
2019-01-14T01:32:21.035Z,985.71
2019-01-14T01:33:20.992Z,985.83
2019-01-14T01:34:20.964Z,985.81
2019-01-14T01:35:20.954Z,985.80
2019-01-14T01:36:20.944Z,985.88
2019-01-14T01:37:20.938Z,985.90
2019-01-14T01:38:20.970Z,985.92
2019-01-14T01:39:20.924Z,985.90
2019-01-14T01:40:20.914Z,985.98
2019-01-14T01:41:20.911Z,985.97
2019-01-14T01:42:20.890Z,986.01
2019-01-14T01:43:20.869Z,985.97
2019-01-14T01:44:20.888Z,986.00
2019-01-14T01:45:20.879Z,985.93
2019-01-14T01:46:20.848Z,985.88
2019-01-14T01:47:20.845Z,986.10
2019-01-14T01:48:20.813Z,986.17
2019-01-14T01:49:20.839Z,986.10
2019-01-14T01:50:20.799Z,986.29
2019-01-14T01:51:20.798Z,986.35
2019-01-14T01:52:20.778Z,986.37
2019-01-14T01:53:20.772Z,986.48
2019-01-14T01:54:20.793Z,986.44
2019-01-14T01:55:20.751Z,986.51
2019-01-14T01:56:20.746Z,986.45
2019-01-14T01:57:20.724Z,986.58
2019-01-14T01:58:20.721Z,986.64
2019-01-14T01:59:20.746Z,986.58
2019-01-14T02:00:20.705Z,986.60
2019-01-14T02:01:29.903Z,986.59
2019-01-14T02:02:29.951Z,986.71
2019-01-14T02:03:20.658Z,986.62
2019-01-14T02:04:20.643Z,986.77
2019-01-14T02:05:20.658Z,986.77
2019-01-14T02:06:20.626Z,986.68
2019-01-14T02:07:20.612Z,986.65
2019-01-14T02:08:20.602Z,986.81
2019-01-14T02:09:20.614Z,986.86
2019-01-14T02:10:20.585Z,986.76
2019-01-14T02:11:20.575Z,986.79
2019-01-14T02:12:20.554Z,986.85
2019-01-14T02:13:20.541Z,986.95
2019-01-14T02:14:20.559Z,986.88
2019-01-14T02:15:20.540Z,986.97
2019-01-14T02:16:20.514Z,986.92
2019-01-14T02:17:20.502Z,987.01
2019-01-14T02:18:20.500Z,986.98
2019-01-14T02:19:20.510Z,987.03
2019-01-14T02:20:20.519Z,987.09
2019-01-14T02:21:20.466Z,987.14
2019-01-14T02:22:20.453Z,987.16
2019-01-14T02:23:20.434Z,987.25
2019-01-14T02:24:20.425Z,987.24
2019-01-14T02:25:20.425Z,987.19
2019-01-14T02:26:20.488Z,987.16
2019-01-14T02:27:20.404Z,987.16
2019-01-14T02:28:20.394Z,987.25
2019-01-14T02:29:20.402Z,987.27
2019-01-14T02:30:20.362Z,987.28
2019-01-14T02:31:20.350Z,987.33
2019-01-14T02:32:20.351Z,987.33
2019-01-14T02:33:20.347Z,987.27
2019-01-14T02:34:20.356Z,987.23
2019-01-14T02:35:20.312Z,987.28
2019-01-14T02:36:20.296Z,987.35
2019-01-14T02:37:20.286Z,987.32
2019-01-14T02:38:20.279Z,987.37
2019-01-14T02:39:20.274Z,987.31
2019-01-14T02:40:20.289Z,987.38
2019-01-14T02:41:20.253Z,987.43
2019-01-14T02:42:20.231Z,987.37
2019-01-14T02:43:20.257Z,987.45
2019-01-14T02:44:20.219Z,987.56
2019-01-14T02:45:20.207Z,987.57
2019-01-14T02:46:20.194Z,987.57
2019-01-14T02:47:20.197Z,987.58
2019-01-14T02:48:20.166Z,987.69
2019-01-14T02:49:20.196Z,987.66
2019-01-14T02:50:20.157Z,987.68
2019-01-14T02:51:20.144Z,987.77
2019-01-14T02:52:20.130Z,987.88
2019-01-14T02:53:20.126Z,987.81
2019-01-14T02:54:20.150Z,987.98
2019-01-14T02:55:20.091Z,987.91
2019-01-14T02:56:20.077Z,987.83
2019-01-14T02:57:20.069Z,987.97
2019-01-14T02:58:20.065Z,988.02
2019-01-14T02:59:20.069Z,987.93
2019-01-14T03:00:20.070Z,988.02
2019-01-14T03:01:20.030Z,988.07
2019-01-14T03:02:20.020Z,988.07
2019-01-14T03:03:20.004Z,988.11
2019-01-14T03:04:20.017Z,988.23
2019-01-14T03:05:19.986Z,988.15
2019-01-14T03:06:19.977Z,988.16
2019-01-14T03:07:19.968Z,988.28
2019-01-14T03:08:19.959Z,988.28
2019-01-14T03:09:19.978Z,988.36
2019-01-14T03:10:19.938Z,988.42
2019-01-14T03:11:19.922Z,988.31
2019-01-14T03:12:19.920Z,988.29
2019-01-14T03:13:19.903Z,988.35
2019-01-14T03:14:19.897Z,988.34
2019-01-14T03:15:19.904Z,988.46
2019-01-14T03:16:19.893Z,988.49
2019-01-14T03:17:19.874Z,988.52
2019-01-14T03:18:19.845Z,988.60
2019-01-14T03:19:19.854Z,988.60
2019-01-14T03:20:19.864Z,988.73
2019-01-14T03:21:19.824Z,988.65
2019-01-14T03:22:19.808Z,988.60
2019-01-14T03:23:19.818Z,988.61
2019-01-14T03:24:19.780Z,988.71
2019-01-14T03:25:19.779Z,988.81
2019-01-14T03:26:19.803Z,988.65
2019-01-14T03:27:19.760Z,988.86
2019-01-14T03:28:19.757Z,988.86
2019-01-14T03:29:19.736Z,988.86
2019-01-14T03:30:19.815Z,988.89
2019-01-14T03:31:19.709Z,988.89
2019-01-14T03:32:19.719Z,988.84
2019-01-14T03:33:19.689Z,988.92
2019-01-14T03:34:19.686Z,989.04
2019-01-14T03:35:19.675Z,988.95
2019-01-14T03:36:19.652Z,989.01
2019-01-14T03:37:19.671Z,989.07
2019-01-14T03:38:19.660Z,989.03
2019-01-14T03:39:19.631Z,989.02
2019-01-14T03:40:19.623Z,989.17
2019-01-14T03:41:19.606Z,989.11
2019-01-14T03:42:19.588Z,989.19
2019-01-14T03:43:19.601Z,989.23
2019-01-14T03:44:19.568Z,989.26
2019-01-14T03:45:19.556Z,989.43
2019-01-14T03:46:19.554Z,989.33
2019-01-14T03:47:19.547Z,989.25
2019-01-14T03:48:19.552Z,989.37
2019-01-14T03:49:19.526Z,989.39
2019-01-14T03:50:19.504Z,989.30
2019-01-14T03:51:19.493Z,989.40
2019-01-14T03:52:19.497Z,989.32
2019-01-14T03:53:19.498Z,989.42
2019-01-14T03:54:19.490Z,989.44
2019-01-14T03:55:19.463Z,989.43
2019-01-14T03:56:19.438Z,989.36
2019-01-14T03:57:19.441Z,989.40
2019-01-14T03:58:19.428Z,989.43
2019-01-14T03:59:19.448Z,989.45
2019-01-14T04:00:19.405Z,989.34
2019-01-14T04:01:19.392Z,989.42
2019-01-14T04:02:19.374Z,989.49
2019-01-14T04:03:19.377Z,989.64
2019-01-14T04:04:19.356Z,989.65
2019-01-14T04:05:19.363Z,989.53
2019-01-14T04:06:19.336Z,989.47
2019-01-14T04:07:19.334Z,989.62
2019-01-14T04:08:19.309Z,989.71
2019-01-14T04:09:19.299Z,989.69
2019-01-14T04:10:19.314Z,989.74
2019-01-14T04:11:19.291Z,989.76
2019-01-14T04:12:19.272Z,989.90
2019-01-14T04:13:19.262Z,989.79
2019-01-14T04:14:19.246Z,989.85
2019-01-14T04:15:19.257Z,989.85
2019-01-14T04:16:19.230Z,989.73
2019-01-14T04:17:19.245Z,989.83
2019-01-14T04:18:19.211Z,989.97
2019-01-14T04:19:19.197Z,989.89
2019-01-14T04:20:19.223Z,989.96
2019-01-14T04:21:19.191Z,990.06
2019-01-14T04:22:19.170Z,989.95
2019-01-14T04:23:19.172Z,990.02
2019-01-14T04:24:19.146Z,989.96
2019-01-14T04:25:19.154Z,990.02
2019-01-14T04:26:19.120Z,989.95
2019-01-14T04:27:19.107Z,990.05
2019-01-14T04:28:19.099Z,989.99
2019-01-14T04:29:19.104Z,990.12
2019-01-14T04:30:19.076Z,990.03
2019-01-14T04:31:19.067Z,990.05
2019-01-14T04:32:19.063Z,990.23
2019-01-14T04:33:19.047Z,990.13
2019-01-14T04:34:19.051Z,990.17
2019-01-14T04:35:19.026Z,990.16
2019-01-14T04:36:19.006Z,990.16
2019-01-14T04:37:21.728Z,990.11
2019-01-14T04:38:18.996Z,990.20
2019-01-14T04:39:19.016Z,990.24
2019-01-14T04:40:18.963Z,990.22
2019-01-14T04:41:18.950Z,990.25
2019-01-14T04:42:18.946Z,990.44
2019-01-14T04:43:18.967Z,990.47
2019-01-14T04:44:18.923Z,990.52
2019-01-14T04:45:18.945Z,990.46
2019-01-14T04:46:18.900Z,990.60
2019-01-14T04:47:18.893Z,990.60
2019-01-14T04:48:18.879Z,990.60
2019-01-14T04:49:18.873Z,990.68
2019-01-14T04:50:18.885Z,990.68
2019-01-14T04:51:18.850Z,990.68
2019-01-14T04:52:18.868Z,990.58
2019-01-14T04:53:18.832Z,990.74
2019-01-14T04:54:18.813Z,990.67
2019-01-14T04:55:18.801Z,990.71
2019-01-14T04:56:18.797Z,990.73
2019-01-14T04:57:18.785Z,990.77
2019-01-14T04:58:18.795Z,990.82
2019-01-14T04:59:18.772Z,990.72
2019-01-14T05:00:18.750Z,990.84
2019-01-14T05:01:18.741Z,990.76
2019-01-14T05:02:26.823Z,990.76
2019-01-14T05:03:18.747Z,990.79
2019-01-14T05:04:18.711Z,990.87
2019-01-14T05:05:18.707Z,990.91
2019-01-14T05:06:18.685Z,990.93
2019-01-14T05:07:18.675Z,990.88
2019-01-14T05:08:18.699Z,990.88
2019-01-14T05:09:18.659Z,990.79
2019-01-14T05:10:18.652Z,990.93
2019-01-14T05:11:18.633Z,990.99
2019-01-14T05:12:18.638Z,991.04
2019-01-14T05:13:18.637Z,990.93
2019-01-14T05:14:18.632Z,991.04
2019-01-14T05:15:18.597Z,991.18
2019-01-14T05:16:18.583Z,990.95
2019-01-14T05:17:18.572Z,991.01
2019-01-14T05:18:18.568Z,990.91
2019-01-14T05:19:18.575Z,990.96
2019-01-14T05:20:18.620Z,991.02
2019-01-14T05:21:18.595Z,990.98
2019-01-14T05:22:18.537Z,991.02
2019-01-14T05:23:18.541Z,991.05
2019-01-14T05:24:18.529Z,991.09
2019-01-14T05:25:18.483Z,991.01
2019-01-14T05:26:18.491Z,991.07
2019-01-14T05:27:18.488Z,990.92
2019-01-14T05:28:18.454Z,991.00
2019-01-14T05:29:18.447Z,990.95
2019-01-14T05:30:18.463Z,990.98
2019-01-14T05:31:18.422Z,990.90
2019-01-14T05:32:18.418Z,991.06
2019-01-14T05:33:18.410Z,990.95
2019-01-14T05:34:18.397Z,990.99
2019-01-14T05:35:18.393Z,991.04
2019-01-14T05:36:18.401Z,991.03
2019-01-14T05:37:18.358Z,990.94
2019-01-14T05:38:18.349Z,991.05
2019-01-14T05:39:18.341Z,990.97
2019-01-14T05:40:18.335Z,990.82
2019-01-14T05:41:18.350Z,990.98
2019-01-14T05:42:18.318Z,991.02
2019-01-14T05:43:18.307Z,990.99
2019-01-14T05:44:18.289Z,990.94
2019-01-14T05:45:18.288Z,991.00
2019-01-14T05:46:18.292Z,991.06
2019-01-14T05:47:18.266Z,991.08
2019-01-14T05:48:18.241Z,991.05
2019-01-14T05:49:18.235Z,990.98
2019-01-14T05:50:18.224Z,991.28
2019-01-14T05:51:18.244Z,991.03
2019-01-14T05:52:18.206Z,991.08
2019-01-14T05:53:18.197Z,991.10
2019-01-14T05:54:18.199Z,991.02
2019-01-14T05:55:18.178Z,991.05
2019-01-14T05:56:18.166Z,991.08
2019-01-14T05:57:18.171Z,991.10
2019-01-14T05:58:18.151Z,991.08
2019-01-14T05:59:18.157Z,991.06
2019-01-14T06:00:18.122Z,991.08
2019-01-14T06:01:18.105Z,991.10
2019-01-14T06:02:18.130Z,991.07
2019-01-14T06:03:18.086Z,991.11
2019-01-14T06:04:18.103Z,991.06
2019-01-14T06:05:18.073Z,991.15
2019-01-14T06:06:18.067Z,991.14
2019-01-14T06:07:18.049Z,991.04
2019-01-14T06:08:18.033Z,991.18
2019-01-14T06:09:18.044Z,991.24
2019-01-14T06:10:18.013Z,991.18
2019-01-14T06:11:18.020Z,991.23
2019-01-14T06:12:17.996Z,991.19
2019-01-14T06:13:17.987Z,991.23
2019-01-14T06:14:17.985Z,991.19
2019-01-14T06:15:17.965Z,991.22
2019-01-14T06:16:18.463Z,991.18
2019-01-14T06:17:17.968Z,991.30
2019-01-14T06:18:17.988Z,991.11
2019-01-14T06:19:17.922Z,991.15
2019-01-14T06:20:17.928Z,991.15
2019-01-14T06:21:17.920Z,991.29
2019-01-14T06:22:17.883Z,991.24
2019-01-14T06:23:17.877Z,991.25
2019-01-14T06:24:17.874Z,991.50
2019-01-14T06:25:17.867Z,991.45
2019-01-14T06:26:17.884Z,991.48
2019-01-14T06:27:17.843Z,991.41
2019-01-14T06:28:17.821Z,991.48
2019-01-14T06:29:17.815Z,991.61
2019-01-14T06:30:17.808Z,991.46
2019-01-14T06:31:17.798Z,991.54
2019-01-14T06:32:17.810Z,991.52
2019-01-14T06:33:17.772Z,991.65
2019-01-14T06:34:17.762Z,991.59
2019-01-14T06:35:17.751Z,991.67
2019-01-14T06:36:17.778Z,991.67
2019-01-14T06:37:17.736Z,991.68
2019-01-14T06:38:17.755Z,991.70
2019-01-14T06:39:17.715Z,991.78
2019-01-14T06:40:17.708Z,991.71
2019-01-14T06:41:17.697Z,991.77
2019-01-14T06:42:17.676Z,991.84
2019-01-14T06:43:17.673Z,991.76
2019-01-14T06:44:17.685Z,991.81
2019-01-14T06:45:17.653Z,991.85
2019-01-14T06:46:17.633Z,991.85
2019-01-14T06:47:17.629Z,991.76
2019-01-14T06:48:17.652Z,992.05
2019-01-14T06:49:17.612Z,991.94
2019-01-14T06:50:17.606Z,992.06
2019-01-14T06:51:17.588Z,992.04
2019-01-14T06:52:17.571Z,992.28
2019-01-14T06:53:17.570Z,992.29
2019-01-14T06:54:17.576Z,992.46
2019-01-14T06:55:17.562Z,992.37
2019-01-14T06:56:17.573Z,992.37
2019-01-14T06:57:17.524Z,992.45
2019-01-14T06:58:17.522Z,992.59
2019-01-14T06:59:17.505Z,992.49
2019-01-14T07:00:17.491Z,992.52
2019-01-14T07:01:17.490Z,992.58
2019-01-14T07:02:17.494Z,992.57
2019-01-14T07:03:17.462Z,992.64
2019-01-14T07:04:17.447Z,992.64
2019-01-14T07:05:17.456Z,992.66
2019-01-14T07:06:17.425Z,992.66
2019-01-14T07:07:17.451Z,992.69
2019-01-14T07:08:17.417Z,992.68
2019-01-14T07:09:17.428Z,992.67
2019-01-14T07:10:17.415Z,992.69
2019-01-14T07:11:17.382Z,992.84
2019-01-14T07:12:17.365Z,992.87
2019-01-14T07:13:17.362Z,992.89
2019-01-14T07:14:17.371Z,992.98
2019-01-14T07:15:17.367Z,993.05
2019-01-14T07:16:17.327Z,993.05
2019-01-14T07:17:17.316Z,993.02
2019-01-14T07:18:17.337Z,993.04
2019-01-14T07:19:17.293Z,993.04
2019-01-14T07:20:17.285Z,993.08
2019-01-14T07:21:17.276Z,993.08
2019-01-14T07:22:17.267Z,993.09
2019-01-14T07:23:17.257Z,993.13
2019-01-14T07:24:17.271Z,993.10
2019-01-14T07:25:17.226Z,993.05
2019-01-14T07:26:17.214Z,993.15
2019-01-14T07:27:17.206Z,993.14
2019-01-14T07:28:17.201Z,993.14
2019-01-14T07:29:17.191Z,993.19
2019-01-14T07:30:17.202Z,993.09
2019-01-14T07:31:17.171Z,993.24
2019-01-14T07:32:17.153Z,993.31
2019-01-14T07:33:17.164Z,993.23
2019-01-14T07:34:17.159Z,993.22
2019-01-14T07:35:17.128Z,993.22
2019-01-14T07:36:17.154Z,993.17
2019-01-14T07:37:17.102Z,993.39
2019-01-14T07:38:17.093Z,993.41
2019-01-14T07:39:17.101Z,993.23
2019-01-14T07:40:17.078Z,993.24
2019-01-14T07:41:17.153Z,993.36
2019-01-14T07:42:17.056Z,993.40
2019-01-14T07:43:17.045Z,993.32
2019-01-14T07:44:17.027Z,993.38
2019-01-14T07:45:17.035Z,993.43
2019-01-14T07:46:17.012Z,993.42
2019-01-14T07:47:17.001Z,993.43
2019-01-14T07:48:16.993Z,993.53
2019-01-14T07:49:16.984Z,993.44
2019-01-14T07:50:16.996Z,993.45
2019-01-14T07:51:16.969Z,993.45
2019-01-14T07:52:16.949Z,993.51
2019-01-14T07:53:16.976Z,993.54
2019-01-14T07:54:16.936Z,993.57
2019-01-14T07:55:16.917Z,993.50
2019-01-14T07:56:16.905Z,993.63
2019-01-14T07:57:17.534Z,993.52
2019-01-14T07:58:16.879Z,993.53
2019-01-14T07:59:16.892Z,993.56
2019-01-14T08:00:16.867Z,993.55
2019-01-14T08:01:16.855Z,993.59
2019-01-14T08:02:16.868Z,993.69
2019-01-14T08:03:16.834Z,993.64
2019-01-14T08:04:16.820Z,993.74
2019-01-14T08:05:16.832Z,993.65
2019-01-14T08:06:16.805Z,993.69
2019-01-14T08:07:16.794Z,993.71
2019-01-14T08:08:16.776Z,993.73
2019-01-14T08:09:16.770Z,993.84
2019-01-14T08:10:16.776Z,993.84
2019-01-14T08:11:16.777Z,993.83
2019-01-14T08:12:16.740Z,993.94
2019-01-14T08:13:16.730Z,993.91
2019-01-14T08:14:16.719Z,993.91
2019-01-14T08:15:16.707Z,993.98
2019-01-14T08:16:16.698Z,993.93
2019-01-14T08:17:16.714Z,994.04
2019-01-14T08:18:16.673Z,994.06
2019-01-14T08:19:16.662Z,994.08
2019-01-14T08:20:16.661Z,994.04
2019-01-14T08:21:16.647Z,994.04
2019-01-14T08:22:16.628Z,994.18
2019-01-14T08:23:16.643Z,993.98
2019-01-14T08:24:16.624Z,994.04
2019-01-14T08:25:16.604Z,994.12
2019-01-14T08:26:16.688Z,994.04
2019-01-14T08:27:16.613Z,994.09
2019-01-14T08:28:16.563Z,994.17
2019-01-14T08:29:16.564Z,994.09
2019-01-14T08:30:16.549Z,994.21
2019-01-14T08:31:16.531Z,994.18
2019-01-14T08:32:16.527Z,994.15
2019-01-14T08:33:16.539Z,994.25
2019-01-14T08:34:16.506Z,994.19
2019-01-14T08:35:16.511Z,994.16
2019-01-14T08:36:16.481Z,994.20
2019-01-14T08:37:16.553Z,994.19
2019-01-14T08:38:21.192Z,994.20
2019-01-14T08:39:16.460Z,994.15
2019-01-14T08:40:16.460Z,994.28
2019-01-14T08:41:16.426Z,994.37
2019-01-14T08:42:16.429Z,994.27
2019-01-14T08:43:16.411Z,994.26
2019-01-14T08:44:16.409Z,994.31
2019-01-14T08:45:16.424Z,994.26
2019-01-14T08:46:16.381Z,994.23
2019-01-14T08:47:16.391Z,994.29
2019-01-14T08:48:16.354Z,994.29
2019-01-14T08:49:16.343Z,994.23
2019-01-14T08:50:16.327Z,994.38
2019-01-14T08:51:16.374Z,994.36
2019-01-14T08:52:16.311Z,994.36
2019-01-14T08:53:16.304Z,994.33
2019-01-14T08:54:16.291Z,994.36
2019-01-14T08:55:16.274Z,994.35
2019-01-14T08:56:16.304Z,994.48
2019-01-14T08:57:16.263Z,994.46
2019-01-14T08:58:16.269Z,994.36
2019-01-14T08:59:16.243Z,994.50
2019-01-14T09:00:16.223Z,994.50
2019-01-14T09:01:16.212Z,994.67
2019-01-14T09:02:16.241Z,994.39
2019-01-14T09:03:16.196Z,994.42
2019-01-14T09:04:16.183Z,994.54
2019-01-14T09:05:16.181Z,994.39
2019-01-14T09:06:16.183Z,994.49
2019-01-14T09:07:16.152Z,994.55
2019-01-14T09:08:16.161Z,994.53
2019-01-14T09:09:16.134Z,994.56
2019-01-14T09:10:16.125Z,994.60
2019-01-14T09:11:16.116Z,994.59
2019-01-14T09:12:16.131Z,994.58
2019-01-14T09:13:16.109Z,994.55
2019-01-14T09:14:16.076Z,994.64
2019-01-14T09:15:16.088Z,994.76
2019-01-14T09:16:16.060Z,994.63
2019-01-14T09:17:16.048Z,994.88
2019-01-14T09:18:16.033Z,994.73
2019-01-14T09:19:16.023Z,994.87
2019-01-14T09:20:16.006Z,994.77
2019-01-14T09:21:16.020Z,994.67
2019-01-14T09:22:15.983Z,994.75
2019-01-14T09:23:15.994Z,994.75
2019-01-14T09:24:15.972Z,994.77
2019-01-14T09:25:15.963Z,994.81
2019-01-14T09:26:15.942Z,994.69
2019-01-14T09:27:15.929Z,994.74
2019-01-14T09:28:16.010Z,994.84
2019-01-14T09:29:15.920Z,994.73
2019-01-14T09:30:15.910Z,994.80
2019-01-14T09:31:15.915Z,994.52
2019-01-14T09:32:15.878Z,994.96
2019-01-14T09:33:15.892Z,994.96
2019-01-14T09:34:15.862Z,994.98
2019-01-14T09:35:15.848Z,994.92
2019-01-14T09:36:15.839Z,995.02
2019-01-14T09:37:15.863Z,994.95
2019-01-14T09:38:15.820Z,995.01
2019-01-14T09:39:15.812Z,994.94
2019-01-14T09:40:15.793Z,994.99
2019-01-14T09:41:15.781Z,994.98
2019-01-14T09:42:15.776Z,995.01
2019-01-14T09:43:15.802Z,994.99
2019-01-14T09:44:15.756Z,995.01
2019-01-14T09:45:15.738Z,994.98
2019-01-14T09:46:15.726Z,995.02
2019-01-14T09:47:15.739Z,995.07
2019-01-14T09:48:15.712Z,995.10
2019-01-14T09:49:15.752Z,995.05
2019-01-14T09:50:15.693Z,995.09
2019-01-14T09:51:15.695Z,995.06
2019-01-14T09:52:15.666Z,995.19
2019-01-14T09:53:15.652Z,994.97
2019-01-14T09:54:15.681Z,995.10
2019-01-14T09:55:15.635Z,995.13
2019-01-14T09:56:15.632Z,995.13
2019-01-14T09:57:15.615Z,995.05
2019-01-14T09:58:15.603Z,995.03
2019-01-14T09:59:15.590Z,994.96
2019-01-14T10:00:15.619Z,994.98
2019-01-14T10:01:15.572Z,995.02
2019-01-14T10:02:15.559Z,995.01
2019-01-14T10:03:15.553Z,995.02
2019-01-14T10:04:15.534Z,995.07
2019-01-14T10:05:15.526Z,994.99
2019-01-14T10:06:15.539Z,995.01
2019-01-14T10:07:15.531Z,994.86
2019-01-14T10:08:15.512Z,994.99
2019-01-14T10:09:15.486Z,994.92
2019-01-14T10:10:15.481Z,994.92
2019-01-14T10:11:15.489Z,995.01
2019-01-14T10:12:15.448Z,995.01
2019-01-14T10:13:15.440Z,994.89
2019-01-14T10:14:15.489Z,994.99
2019-01-14T10:15:15.419Z,994.87
2019-01-14T10:16:15.460Z,995.06
2019-01-14T10:17:15.393Z,995.13
2019-01-14T10:18:15.421Z,994.94
2019-01-14T10:19:15.374Z,995.02
2019-01-14T10:20:15.399Z,994.84
2019-01-14T10:21:15.357Z,994.89
2019-01-14T10:22:15.590Z,994.91
2019-01-14T10:23:15.339Z,995.08
2019-01-14T10:24:15.367Z,994.91
2019-01-14T10:25:15.314Z,994.95
2019-01-14T10:26:16.258Z,994.87
2019-01-14T10:27:15.301Z,994.98
2019-01-14T10:28:15.308Z,994.94
2019-01-14T10:29:15.281Z,994.85
2019-01-14T10:30:15.261Z,994.99
2019-01-14T10:31:19.789Z,995.02
2019-01-14T10:32:15.243Z,995.01
2019-01-14T10:33:15.275Z,995.01
2019-01-14T10:34:15.224Z,994.98
2019-01-14T10:35:15.210Z,995.02
2019-01-14T10:36:15.191Z,995.01
2019-01-14T10:37:15.212Z,994.79
2019-01-14T10:38:15.190Z,994.97
2019-01-14T10:39:15.181Z,994.93
2019-01-14T10:40:15.192Z,995.01
2019-01-14T10:41:15.149Z,994.93
2019-01-14T10:42:15.133Z,994.84
2019-01-14T10:43:15.129Z,994.97
2019-01-14T10:44:15.136Z,995.02
2019-01-14T10:45:15.105Z,994.89
2019-01-14T10:46:15.097Z,994.92
2019-01-14T10:47:15.079Z,995.03
2019-01-14T10:48:15.068Z,994.81
2019-01-14T10:49:15.072Z,994.88
2019-01-14T10:50:15.042Z,994.91
2019-01-14T10:51:15.035Z,994.91
2019-01-14T10:52:15.026Z,994.97
2019-01-14T10:53:15.024Z,994.96
2019-01-14T10:54:15.029Z,994.75
2019-01-14T10:55:14.992Z,994.98
2019-01-14T10:56:14.976Z,994.96
2019-01-14T10:57:14.966Z,994.96
2019-01-14T10:58:14.984Z,994.95
2019-01-14T10:59:14.969Z,994.96
2019-01-14T11:00:14.944Z,995.13
2019-01-14T11:01:14.927Z,994.95
2019-01-14T11:02:14.921Z,995.02
2019-01-14T11:03:15.520Z,995.01
2019-01-14T11:04:15.103Z,994.99
2019-01-14T11:05:14.900Z,994.84
2019-01-14T11:06:15.104Z,995.01
2019-01-14T11:07:15.215Z,994.91
2019-01-14T11:08:14.865Z,994.93
2019-01-14T11:09:15.040Z,995.04
2019-01-14T11:10:14.825Z,995.15
2019-01-14T11:11:14.815Z,995.08
2019-01-14T11:12:14.818Z,995.14
2019-01-14T11:13:14.800Z,995.12
2019-01-14T11:14:14.789Z,995.15
2019-01-14T11:15:14.820Z,995.15
2019-01-14T11:16:14.793Z,995.19
2019-01-14T11:18:32.382Z,995.21
2019-01-14T11:19:32.329Z,995.26
2019-01-14T11:20:32.375Z,995.35
2019-01-14T11:21:32.340Z,995.37
2019-01-14T11:22:32.301Z,995.24
2019-01-14T11:23:32.304Z,995.43
2019-01-14T11:24:32.287Z,995.37
2019-01-14T11:25:32.274Z,995.47
2019-01-14T11:26:32.270Z,995.36
2019-01-14T11:27:32.270Z,995.33
2019-01-14T11:28:32.244Z,995.32
2019-01-14T11:29:32.237Z,995.34
2019-01-14T11:30:32.226Z,995.40
2019-01-14T11:31:32.253Z,995.32
2019-01-14T11:32:32.214Z,995.37
2019-01-14T11:33:32.267Z,995.43
2019-01-14T11:34:32.218Z,995.33
2019-01-14T11:35:32.182Z,995.42
2019-01-14T11:36:32.169Z,995.51
2019-01-14T11:37:32.183Z,995.54
2019-01-14T11:38:32.188Z,995.53
2019-01-14T11:39:32.126Z,995.69
2019-01-14T11:40:32.131Z,995.50
2019-01-14T11:41:32.141Z,995.48
2019-01-14T11:42:32.097Z,995.48
2019-01-14T11:43:32.093Z,995.48
2019-01-14T11:44:32.105Z,995.50
2019-01-14T11:45:32.078Z,995.56
2019-01-14T11:46:32.069Z,995.53
2019-01-14T11:47:32.050Z,995.59
2019-01-14T11:48:32.038Z,995.63
2019-01-14T11:49:32.068Z,995.61
2019-01-14T11:50:32.059Z,995.61
2019-01-14T11:51:32.008Z,995.57
2019-01-14T11:52:31.999Z,995.59
2019-01-14T11:53:31.980Z,995.66
2019-01-14T11:54:31.998Z,995.71
2019-01-14T11:55:31.991Z,995.64
2019-01-14T11:56:31.952Z,995.75
2019-01-14T11:57:31.944Z,995.70
2019-01-14T11:58:31.939Z,995.69
2019-01-14T11:59:31.918Z,995.77
2019-01-14T12:00:36.571Z,995.83
2019-01-14T12:01:32.890Z,995.93
2019-01-14T12:02:31.905Z,996.08
2019-01-14T12:03:31.882Z,995.90
2019-01-14T12:04:31.876Z,995.84
2019-01-14T12:05:31.850Z,996.10
2019-01-14T12:06:31.885Z,995.86
2019-01-14T12:07:31.854Z,996.10
2019-01-14T12:08:31.823Z,995.93
2019-01-14T12:09:31.842Z,995.83
2019-01-14T12:10:31.806Z,995.90
2019-01-14T12:11:31.811Z,995.97
2019-01-14T12:12:31.810Z,995.93
2019-01-14T12:13:31.795Z,995.87
2019-01-14T12:14:31.753Z,995.91
2019-01-14T12:15:31.758Z,995.80
2019-01-14T12:16:31.746Z,995.95
2019-01-14T12:17:31.774Z,995.80
2019-01-14T12:18:31.730Z,995.83
2019-01-14T12:19:31.700Z,995.85
2019-01-14T12:20:31.701Z,995.98
2019-01-14T12:21:31.698Z,995.93
2019-01-14T12:22:31.676Z,995.89
2019-01-14T12:23:31.688Z,995.95
2019-01-14T12:24:31.666Z,995.79
2019-01-14T12:25:31.635Z,995.86
2019-01-14T12:26:31.637Z,996.04
2019-01-14T12:27:31.632Z,995.95
2019-01-14T12:28:31.638Z,995.95
2019-01-14T12:29:31.630Z,995.99